createdAt,value
2023-08-19T00:03:49.757Z,7.90
2023-08-19T00:13:49.196Z,8.60
2023-08-19T00:23:54.262Z,8.70
2023-08-19T00:33:53.833Z,7.50
2023-08-19T00:43:53.438Z,8.70
2023-08-19T00:53:53.239Z,7.10
2023-08-19T01:03:58.437Z,8.10
2023-08-19T01:13:57.976Z,8.00
2023-08-19T01:23:57.703Z,8.10
2023-08-19T01:34:02.840Z,8.10
2023-08-19T01:44:02.311Z,7.80
2023-08-19T01:54:02.395Z,7.30
2023-08-19T02:04:01.540Z,7.70
2023-08-19T02:14:07.668Z,7.50
2023-08-19T02:24:06.285Z,7.30
2023-08-19T02:34:06.074Z,8.10
2023-08-19T02:44:05.715Z,8.50
2023-08-19T02:54:11.856Z,7.70
2023-08-19T03:04:10.417Z,7.00
2023-08-19T03:14:10.067Z,6.90
2023-08-19T03:24:09.966Z,7.90
2023-08-19T03:34:15.099Z,7.80
2023-08-19T03:44:14.713Z,8.10
2023-08-19T03:54:14.350Z,6.30
2023-08-19T04:04:14.571Z,8.40
2023-08-19T04:14:19.635Z,6.20
2023-08-19T04:24:19.094Z,6.50
2023-08-19T04:34:18.869Z,7.50
2023-08-19T04:44:18.625Z,6.40
2023-08-19T04:54:23.772Z,7.80
2023-08-19T05:04:23.409Z,7.10
2023-08-19T05:14:28.220Z,6.30
2023-08-19T05:24:28.163Z,6.30
2023-08-19T05:34:28.381Z,8.20
2023-08-19T05:44:27.428Z,8.20
2023-08-19T05:54:27.369Z,8.30
2023-08-19T06:04:32.168Z,6.70
2023-08-19T06:14:32.129Z,7.20
2023-08-19T06:24:31.613Z,7.40
2023-08-19T06:34:31.118Z,7.40
2023-08-19T06:44:36.225Z,6.60
2023-08-19T06:54:36.058Z,7.30
2023-08-19T07:04:35.516Z,6.90
2023-08-19T07:14:40.773Z,6.80
2023-08-19T07:24:40.229Z,6.10
2023-08-19T07:34:39.856Z,7.30
2023-08-19T07:44:39.874Z,7.00
2023-08-19T07:54:46.492Z,6.10
2023-08-19T08:04:44.546Z,8.50
2023-08-19T08:14:43.935Z,7.80
2023-08-19T08:24:49.514Z,9.00
2023-08-19T08:34:48.738Z,6.80
2023-08-19T08:44:48.347Z,8.20
2023-08-19T08:54:53.766Z,7.10
2023-08-19T09:04:53.257Z,7.80
2023-08-19T09:14:52.703Z,7.20
2023-08-19T09:24:52.834Z,7.00
2023-08-19T09:34:58.188Z,8.40
2023-08-19T09:44:57.781Z,7.90
2023-08-19T09:54:57.293Z,6.70
2023-08-19T10:05:02.397Z,7.60
2023-08-19T10:15:02.342Z,8.10
2023-08-19T10:25:01.664Z,8.40
2023-08-19T10:35:07.873Z,7.50
2023-08-19T10:45:06.427Z,9.30
2023-08-19T10:55:06.380Z,7.80
2023-08-19T11:05:13.121Z,7.80
2023-08-19T11:15:11.159Z,9.00
2023-08-19T11:25:16.293Z,8.50
2023-08-19T11:35:16.009Z,8.00
2023-08-19T11:45:17.245Z,8.20
2023-08-19T11:55:20.709Z,8.60
2023-08-19T12:05:20.510Z,9.20
2023-08-19T12:15:20.283Z,9.10
2023-08-19T12:25:25.285Z,10.10
2023-08-19T12:35:24.936Z,9.50
2023-08-19T12:45:30.110Z,10.10
2023-08-19T12:55:29.725Z,11.80
2023-08-19T13:05:29.464Z,13.80
2023-08-19T13:15:34.539Z,12.70
2023-08-19T13:25:34.143Z,12.40
2023-08-19T13:35:39.663Z,14.40
2023-08-19T13:45:38.950Z,12.70
2023-08-19T13:55:40.239Z,12.20
2023-08-19T14:05:43.869Z,11.90
2023-08-19T14:15:43.341Z,12.60
2023-08-19T14:25:42.978Z,11.80
2023-08-19T14:35:48.113Z,10.20
2023-08-19T14:45:47.825Z,10.30
2023-08-19T14:55:47.389Z,13.80
2023-08-19T15:05:52.680Z,11.80
2023-08-19T15:15:52.199Z,10.80
2023-08-19T15:25:53.482Z,10.60
2023-08-19T15:35:56.948Z,10.50
2023-08-19T15:45:56.604Z,10.10
2023-08-19T15:55:56.228Z,10.50
2023-08-19T16:06:01.389Z,9.60
2023-08-19T16:16:00.990Z,8.50
2023-08-19T16:26:00.608Z,8.00
2023-08-19T16:36:05.792Z,8.60
2023-08-19T16:46:05.447Z,11.90
2023-08-19T16:56:05.045Z,8.90
2023-08-19T17:06:11.257Z,8.90
2023-08-19T17:16:09.849Z,8.90
2023-08-19T17:26:09.517Z,8.80
2023-08-19T17:36:14.607Z,9.40
2023-08-19T17:46:14.286Z,8.30
2023-08-19T17:56:13.901Z,11.10
2023-08-19T18:06:19.136Z,9.90
2023-08-19T18:16:18.780Z,12.10
2023-08-19T18:26:18.378Z,10.60
2023-08-19T18:36:23.766Z,12.00
2023-08-19T18:46:23.087Z,10.30
2023-08-19T18:56:22.732Z,9.80
2023-08-19T19:06:27.831Z,10.30
2023-08-19T19:16:27.517Z,9.40
2023-08-19T19:26:27.483Z,9.60
2023-08-19T19:36:32.231Z,9.40
2023-08-19T19:46:31.911Z,10.40
2023-08-19T19:56:31.701Z,11.90
2023-08-19T20:06:36.638Z,11.20
2023-08-19T20:16:36.505Z,9.30
2023-08-19T20:26:36.032Z,11.00
2023-08-19T20:36:35.577Z,10.00
2023-08-19T20:46:40.685Z,11.50
2023-08-19T20:56:40.509Z,10.00
2023-08-19T21:06:41.483Z,10.40
2023-08-19T21:16:45.078Z,11.00
2023-08-19T21:26:44.697Z,12.80
2023-08-19T21:36:44.345Z,13.00
2023-08-19T21:46:43.973Z,11.90
2023-08-19T21:56:49.446Z,11.30
2023-08-19T22:06:48.773Z,12.50
2023-08-19T22:16:48.614Z,11.20
2023-08-19T22:26:48.025Z,12.80
2023-08-19T22:36:53.192Z,9.40
2023-08-19T22:46:52.964Z,10.20
2023-08-19T22:56:52.494Z,11.70
2023-08-19T23:06:52.148Z,10.30
2023-08-19T23:16:52.260Z,10.70
2023-08-19T23:26:57.356Z,10.80
2023-08-19T23:36:57.167Z,12.00
2023-08-19T23:46:56.787Z,11.20
2023-08-19T23:56:56.267Z,11.40
